Terminal Aerodrome Forecast
Issued by NWS Northern Indiana

Home | Current Version | Previous Version | Graphics & Text | Print | Product List | Glossary On
Versions: 1 2 3 4 5 6 7 8 9 10 11 12 13
000
FTUS43 KIWX 302300
TAFFWA
TAF
KFWA 302338Z 3100/3124 22008KT 5SM SHRA BR SCT015 BKN040
      TEMPO 3100/3104 2SM TSRA BR OVC015CB
     FM310400 05015KT 3SM RA BR VCTS OVC015CB
     FM311400 04015G20KT 5SM -SHRA BR OVC008
     FM311900 04018G25KT P6SM OVC020=

USA.gov is the U.S. government's official web portal to all federal, state and local government web resources and services.